sensor_id;sensor_type;location;lat;lon;timestamp;temperature;humidity
37050;DHT22;22958;51.232;6.826;2022-07-06T00:01:03;14.80;99.90
37050;DHT22;22958;51.232;6.826;2022-07-06T00:03:29;14.70;99.90
37050;DHT22;22958;51.232;6.826;2022-07-06T00:05:54;14.70;99.90
37050;DHT22;22958;51.232;6.826;2022-07-06T00:08:20;14.70;99.90
37050;DHT22;22958;51.232;6.826;2022-07-06T00:10:45;14.70;99.90
37050;DHT22;22958;51.232;6.826;2022-07-06T00:13:11;14.60;99.90
37050;DHT22;22958;51.232;6.826;2022-07-06T00:15:36;14.60;99.90
37050;DHT22;22958;51.232;6.826;2022-07-06T00:18:02;14.60;99.90
37050;DHT22;22958;51.232;6.826;2022-07-06T00:20:27;14.50;99.90
37050;DHT22;22958;51.232;6.826;2022-07-06T00:22:53;14.50;99.90
37050;DHT22;22958;51.232;6.826;2022-07-06T00:25:18;14.40;99.90
37050;DHT22;22958;51.232;6.826;2022-07-06T00:27:44;14.40;99.90
37050;DHT22;22958;51.232;6.826;2022-07-06T00:30:09;14.40;99.90
37050;DHT22;22958;51.232;6.826;2022-07-06T00:32:35;14.40;99.90
37050;DHT22;22958;51.232;6.826;2022-07-06T00:35:00;14.30;99.90
37050;DHT22;22958;51.232;6.826;2022-07-06T00:37:26;14.30;99.90
37050;DHT22;22958;51.232;6.826;2022-07-06T00:39:51;14.20;99.90
37050;DHT22;22958;51.232;6.826;2022-07-06T00:42:17;14.20;99.90
37050;DHT22;22958;51.232;6.826;2022-07-06T00:44:42;14.20;99.90
37050;DHT22;22958;51.232;6.826;2022-07-06T00:47:08;14.10;99.90
37050;DHT22;22958;51.232;6.826;2022-07-06T00:49:34;14.10;99.90
37050;DHT22;22958;51.232;6.826;2022-07-06T00:52:18;14.10;99.90
37050;DHT22;22958;51.232;6.826;2022-07-06T00:54:45;14.10;99.90
37050;DHT22;22958;51.232;6.826;2022-07-06T00:57:11;14.00;99.90
37050;DHT22;22958;51.232;6.826;2022-07-06T00:59:37;14.00;99.90
37050;DHT22;22958;51.232;6.826;2022-07-06T01:02:03;14.00;99.90
37050;DHT22;22958;51.232;6.826;2022-07-06T01:04:29;14.00;99.90
37050;DHT22;22958;51.232;6.826;2022-07-06T01:06:55;13.90;99.90
37050;DHT22;22958;51.232;6.826;2022-07-06T01:09:21;13.90;99.90
37050;DHT22;22958;51.232;6.826;2022-07-06T01:11:47;13.90;99.90
37050;DHT22;22958;51.232;6.826;2022-07-06T01:14:14;13.80;99.90
37050;DHT22;22958;51.232;6.826;2022-07-06T01:16:40;13.80;99.90
37050;DHT22;22958;51.232;6.826;2022-07-06T01:19:05;13.80;99.90
37050;DHT22;22958;51.232;6.826;2022-07-06T01:21:31;13.70;99.90
37050;DHT22;22958;51.232;6.826;2022-07-06T01:23:57;13.70;99.90
37050;DHT22;22958;51.232;6.826;2022-07-06T01:26:22;13.60;99.90
37050;DHT22;22958;51.232;6.826;2022-07-06T01:28:52;13.60;99.90
37050;DHT22;22958;51.232;6.826;2022-07-06T01:31:19;13.60;99.90
37050;DHT22;22958;51.232;6.826;2022-07-06T01:33:45;13.50;99.90
37050;DHT22;22958;51.232;6.826;2022-07-06T01:36:11;13.50;99.90
37050;DHT22;22958;51.232;6.826;2022-07-06T01:38:48;13.40;99.90
37050;DHT22;22958;51.232;6.826;2022-07-06T01:41:14;13.40;99.90
37050;DHT22;22958;51.232;6.826;2022-07-06T01:43:40;13.40;99.90
37050;DHT22;22958;51.232;6.826;2022-07-06T01:46:06;13.40;99.90
37050;DHT22;22958;51.232;6.826;2022-07-06T01:48:31;13.40;99.90
37050;DHT22;22958;51.232;6.826;2022-07-06T01:50:57;13.40;99.90
37050;DHT22;22958;51.232;6.826;2022-07-06T01:53:22;13.40;99.90
37050;DHT22;22958;51.232;6.826;2022-07-06T01:55:48;13.40;99.90
37050;DHT22;22958;51.232;6.826;2022-07-06T01:58:13;13.40;99.90
37050;DHT22;22958;51.232;6.826;2022-07-06T02:00:39;13.40;99.90
37050;DHT22;22958;51.232;6.826;2022-07-06T02:03:04;13.40;99.90
37050;DHT22;22958;51.232;6.826;2022-07-06T02:05:30;13.40;99.90
37050;DHT22;22958;51.232;6.826;2022-07-06T02:07:55;13.40;99.90
37050;DHT22;22958;51.232;6.826;2022-07-06T02:10:21;13.30;99.90
37050;DHT22;22958;51.232;6.826;2022-07-06T02:12:47;13.30;99.90
37050;DHT22;22958;51.232;6.826;2022-07-06T02:15:12;13.30;99.90
37050;DHT22;22958;51.232;6.826;2022-07-06T02:17:38;13.30;99.90
37050;DHT22;22958;51.232;6.826;2022-07-06T02:20:05;13.20;99.90
37050;DHT22;22958;51.232;6.826;2022-07-06T02:22:31;13.30;99.90
37050;DHT22;22958;51.232;6.826;2022-07-06T02:24:56;13.30;99.90
37050;DHT22;22958;51.232;6.826;2022-07-06T02:27:22;13.40;99.90
37050;DHT22;22958;51.232;6.826;2022-07-06T02:29:47;13.40;99.90
37050;DHT22;22958;51.232;6.826;2022-07-06T02:32:13;13.40;99.90
37050;DHT22;22958;51.232;6.826;2022-07-06T02:34:38;13.40;99.90
37050;DHT22;22958;51.232;6.826;2022-07-06T02:37:04;13.40;99.90
37050;DHT22;22958;51.232;6.826;2022-07-06T02:39:29;13.30;99.90
37050;DHT22;22958;51.232;6.826;2022-07-06T02:41:55;13.30;99.90
37050;DHT22;22958;51.232;6.826;2022-07-06T02:44:20;13.30;99.90
37050;DHT22;22958;51.232;6.826;2022-07-06T02:46:46;13.30;99.90
37050;DHT22;22958;51.232;6.826;2022-07-06T02:49:11;13.30;99.90
37050;DHT22;22958;51.232;6.826;2022-07-06T02:51:37;13.30;99.90
37050;DHT22;22958;51.232;6.826;2022-07-06T02:54:02;13.30;99.90
37050;DHT22;22958;51.232;6.826;2022-07-06T02:56:28;13.30;99.90
37050;DHT22;22958;51.232;6.826;2022-07-06T02:58:54;13.30;99.90
37050;DHT22;22958;51.232;6.826;2022-07-06T03:01:19;13.30;99.90
37050;DHT22;22958;51.232;6.826;2022-07-06T03:03:45;13.20;99.90
37050;DHT22;22958;51.232;6.826;2022-07-06T03:06:10;13.10;99.90
37050;DHT22;22958;51.232;6.826;2022-07-06T03:08:36;13.00;99.90
37050;DHT22;22958;51.232;6.826;2022-07-06T03:11:01;13.00;99.90
37050;DHT22;22958;51.232;6.826;2022-07-06T03:13:28;13.00;99.90
37050;DHT22;22958;51.232;6.826;2022-07-06T03:15:54;12.90;99.90
37050;DHT22;22958;51.232;6.826;2022-07-06T03:18:19;12.90;99.90
37050;DHT22;22958;51.232;6.826;2022-07-06T03:20:45;12.90;99.90
37050;DHT22;22958;51.232;6.826;2022-07-06T03:23:10;12.90;99.90
37050;DHT22;22958;51.232;6.826;2022-07-06T03:25:36;12.90;99.90
37050;DHT22;22958;51.232;6.826;2022-07-06T03:28:01;12.90;99.90
37050;DHT22;22958;51.232;6.826;2022-07-06T03:30:27;12.90;99.90
37050;DHT22;22958;51.232;6.826;2022-07-06T03:32:52;12.80;99.90
37050;DHT22;22958;51.232;6.826;2022-07-06T03:35:18;12.80;99.90
37050;DHT22;22958;51.232;6.826;2022-07-06T03:37:44;12.80;99.90
37050;DHT22;22958;51.232;6.826;2022-07-06T03:40:10;12.70;99.90
37050;DHT22;22958;51.232;6.826;2022-07-06T03:42:36;12.80;99.90
37050;DHT22;22958;51.232;6.826;2022-07-06T03:45:03;12.70;99.90
37050;DHT22;22958;51.232;6.826;2022-07-06T03:47:28;12.80;99.90
37050;DHT22;22958;51.232;6.826;2022-07-06T03:49:54;12.80;99.90
37050;DHT22;22958;51.232;6.826;2022-07-06T03:52:19;12.80;99.90
37050;DHT22;22958;51.232;6.826;2022-07-06T03:54:45;12.90;99.90
37050;DHT22;22958;51.232;6.826;2022-07-06T03:57:10;12.90;99.90
37050;DHT22;22958;51.232;6.826;2022-07-06T03:59:41;12.90;99.90
37050;DHT22;22958;51.232;6.826;2022-07-06T04:02:07;12.80;99.90
37050;DHT22;22958;51.232;6.826;2022-07-06T04:04:33;12.80;99.90
37050;DHT22;22958;51.232;6.826;2022-07-06T04:06:59;12.80;99.90
37050;DHT22;22958;51.232;6.826;2022-07-06T04:09:25;12.80;99.90
37050;DHT22;22958;51.232;6.826;2022-07-06T04:11:51;12.80;99.90
37050;DHT22;22958;51.232;6.826;2022-07-06T04:14:17;12.80;99.90
37050;DHT22;22958;51.232;6.826;2022-07-06T04:16:42;12.80;99.90
37050;DHT22;22958;51.232;6.826;2022-07-06T04:19:08;12.90;99.90
37050;DHT22;22958;51.232;6.826;2022-07-06T04:21:33;12.90;99.90
37050;DHT22;22958;51.232;6.826;2022-07-06T04:23:59;12.90;99.90
37050;DHT22;22958;51.232;6.826;2022-07-06T04:26:24;12.90;99.90
37050;DHT22;22958;51.232;6.826;2022-07-06T04:28:50;13.00;99.90
37050;DHT22;22958;51.232;6.826;2022-07-06T04:31:15;13.00;99.90
37050;DHT22;22958;51.232;6.826;2022-07-06T04:33:42;13.10;99.90
37050;DHT22;22958;51.232;6.826;2022-07-06T04:36:08;13.20;99.90
37050;DHT22;22958;51.232;6.826;2022-07-06T04:38:34;13.20;99.90
37050;DHT22;22958;51.232;6.826;2022-07-06T04:40:59;13.30;99.90
37050;DHT22;22958;51.232;6.826;2022-07-06T04:43:25;13.40;99.90
37050;DHT22;22958;51.232;6.826;2022-07-06T04:45:50;13.50;99.90
37050;DHT22;22958;51.232;6.826;2022-07-06T04:48:16;13.40;99.90
37050;DHT22;22958;51.232;6.826;2022-07-06T04:50:42;13.50;99.90
37050;DHT22;22958;51.232;6.826;2022-07-06T04:53:08;13.20;99.90
37050;DHT22;22958;51.232;6.826;2022-07-06T04:55:33;13.40;99.90
37050;DHT22;22958;51.232;6.826;2022-07-06T04:57:59;13.40;99.90
37050;DHT22;22958;51.232;6.826;2022-07-06T05:00:24;13.40;99.90
37050;DHT22;22958;51.232;6.826;2022-07-06T05:02:50;13.30;99.90
37050;DHT22;22958;51.232;6.826;2022-07-06T05:05:16;13.30;99.90
37050;DHT22;22958;51.232;6.826;2022-07-06T05:07:41;13.40;99.90
37050;DHT22;22958;51.232;6.826;2022-07-06T05:10:11;13.70;99.90
37050;DHT22;22958;51.232;6.826;2022-07-06T05:12:36;13.90;99.90
37050;DHT22;22958;51.232;6.826;2022-07-06T05:15:02;14.10;99.90
37050;DHT22;22958;51.232;6.826;2022-07-06T05:17:28;13.80;99.90
37050;DHT22;22958;51.232;6.826;2022-07-06T05:19:54;13.80;99.90
37050;DHT22;22958;51.232;6.826;2022-07-06T05:22:19;13.90;99.90
37050;DHT22;22958;51.232;6.826;2022-07-06T05:24:45;13.80;99.90
37050;DHT22;22958;51.232;6.826;2022-07-06T05:27:10;13.80;99.90
37050;DHT22;22958;51.232;6.826;2022-07-06T05:29:36;13.80;99.90
37050;DHT22;22958;51.232;6.826;2022-07-06T05:32:02;13.90;99.90
37050;DHT22;22958;51.232;6.826;2022-07-06T05:34:27;13.80;99.90
37050;DHT22;22958;51.232;6.826;2022-07-06T05:36:53;13.90;99.90
37050;DHT22;22958;51.232;6.826;2022-07-06T05:39:19;13.80;99.90
37050;DHT22;22958;51.232;6.826;2022-07-06T05:41:46;14.00;99.90
37050;DHT22;22958;51.232;6.826;2022-07-06T05:44:12;14.10;99.90
37050;DHT22;22958;51.232;6.826;2022-07-06T05:46:38;14.20;99.90
37050;DHT22;22958;51.232;6.826;2022-07-06T05:49:03;14.10;99.90
37050;DHT22;22958;51.232;6.826;2022-07-06T05:51:47;14.00;99.90
37050;DHT22;22958;51.232;6.826;2022-07-06T05:54:13;14.10;99.90
37050;DHT22;22958;51.232;6.826;2022-07-06T05:56:38;14.10;99.90
37050;DHT22;22958;51.232;6.826;2022-07-06T05:59:04;14.30;99.90
37050;DHT22;22958;51.232;6.826;2022-07-06T06:01:29;14.40;99.90
37050;DHT22;22958;51.232;6.826;2022-07-06T06:03:55;14.60;99.90
37050;DHT22;22958;51.232;6.826;2022-07-06T06:06:20;14.70;99.90
37050;DHT22;22958;51.232;6.826;2022-07-06T06:08:46;14.70;99.90
37050;DHT22;22958;51.232;6.826;2022-07-06T06:11:12;14.80;99.90
37050;DHT22;22958;51.232;6.826;2022-07-06T06:13:37;14.80;99.90
37050;DHT22;22958;51.232;6.826;2022-07-06T06:16:03;14.90;99.90
37050;DHT22;22958;51.232;6.826;2022-07-06T06:18:28;15.00;99.90
37050;DHT22;22958;51.232;6.826;2022-07-06T06:20:54;15.00;99.90
37050;DHT22;22958;51.232;6.826;2022-07-06T06:23:19;15.00;99.90
37050;DHT22;22958;51.232;6.826;2022-07-06T06:25:45;15.20;99.90
37050;DHT22;22958;51.232;6.826;2022-07-06T06:28:11;15.10;99.90
37050;DHT22;22958;51.232;6.826;2022-07-06T06:30:37;15.10;99.90
37050;DHT22;22958;51.232;6.826;2022-07-06T06:33:11;15.30;99.90
37050;DHT22;22958;51.232;6.826;2022-07-06T06:35:38;15.50;99.90
37050;DHT22;22958;51.232;6.826;2022-07-06T06:38:03;15.60;99.90
37050;DHT22;22958;51.232;6.826;2022-07-06T06:40:29;15.70;99.90
37050;DHT22;22958;51.232;6.826;2022-07-06T06:42:54;15.90;99.90
37050;DHT22;22958;51.232;6.826;2022-07-06T06:45:20;15.80;99.90
37050;DHT22;22958;51.232;6.826;2022-07-06T06:47:45;15.90;99.90
37050;DHT22;22958;51.232;6.826;2022-07-06T06:50:11;16.00;99.90
37050;DHT22;22958;51.232;6.826;2022-07-06T06:52:36;16.40;99.90
37050;DHT22;22958;51.232;6.826;2022-07-06T06:55:02;16.30;99.90
37050;DHT22;22958;51.232;6.826;2022-07-06T06:57:28;16.40;99.90
37050;DHT22;22958;51.232;6.826;2022-07-06T06:59:54;16.40;99.90
37050;DHT22;22958;51.232;6.826;2022-07-06T07:02:20;16.10;99.90
37050;DHT22;22958;51.232;6.826;2022-07-06T07:04:45;16.30;99.90
37050;DHT22;22958;51.232;6.826;2022-07-06T07:07:11;16.30;99.90
37050;DHT22;22958;51.232;6.826;2022-07-06T07:09:36;16.00;99.90
37050;DHT22;22958;51.232;6.826;2022-07-06T07:12:02;15.90;99.90
37050;DHT22;22958;51.232;6.826;2022-07-06T07:14:28;15.90;99.90
37050;DHT22;22958;51.232;6.826;2022-07-06T07:16:53;16.20;99.90
37050;DHT22;22958;51.232;6.826;2022-07-06T07:19:19;16.10;99.90
37050;DHT22;22958;51.232;6.826;2022-07-06T07:21:44;16.20;99.90
37050;DHT22;22958;51.232;6.826;2022-07-06T07:24:10;16.40;99.90
37050;DHT22;22958;51.232;6.826;2022-07-06T07:26:36;16.50;99.90
37050;DHT22;22958;51.232;6.826;2022-07-06T07:29:01;16.60;99.90
37050;DHT22;22958;51.232;6.826;2022-07-06T07:31:27;16.60;99.90
37050;DHT22;22958;51.232;6.826;2022-07-06T07:33:52;16.60;99.90
37050;DHT22;22958;51.232;6.826;2022-07-06T07:36:21;16.60;99.90
37050;DHT22;22958;51.232;6.826;2022-07-06T07:38:46;16.70;99.90
37050;DHT22;22958;51.232;6.826;2022-07-06T07:41:12;16.70;99.90
37050;DHT22;22958;51.232;6.826;2022-07-06T07:43:39;16.30;99.90
37050;DHT22;22958;51.232;6.826;2022-07-06T07:46:04;16.20;99.90
37050;DHT22;22958;51.232;6.826;2022-07-06T07:48:30;16.20;99.90
37050;DHT22;22958;51.232;6.826;2022-07-06T07:50:55;16.40;99.90
37050;DHT22;22958;51.232;6.826;2022-07-06T07:53:21;16.90;99.90
37050;DHT22;22958;51.232;6.826;2022-07-06T07:55:46;16.90;99.90
37050;DHT22;22958;51.232;6.826;2022-07-06T07:58:12;17.20;99.90
37050;DHT22;22958;51.232;6.826;2022-07-06T08:00:37;17.30;99.90
37050;DHT22;22958;51.232;6.826;2022-07-06T08:03:03;17.10;99.90
37050;DHT22;22958;51.232;6.826;2022-07-06T08:05:29;17.30;99.90
37050;DHT22;22958;51.232;6.826;2022-07-06T08:07:54;17.50;99.90
37050;DHT22;22958;51.232;6.826;2022-07-06T08:10:20;17.20;99.90
37050;DHT22;22958;51.232;6.826;2022-07-06T08:12:46;17.50;99.90
37050;DHT22;22958;51.232;6.826;2022-07-06T08:15:12;17.70;99.90
37050;DHT22;22958;51.232;6.826;2022-07-06T08:17:37;18.10;99.90
37050;DHT22;22958;51.232;6.826;2022-07-06T08:20:05;17.60;99.90
37050;DHT22;22958;51.232;6.826;2022-07-06T08:22:31;17.40;99.90
37050;DHT22;22958;51.232;6.826;2022-07-06T08:24:56;17.50;99.90
37050;DHT22;22958;51.232;6.826;2022-07-06T08:27:23;17.50;99.90
37050;DHT22;22958;51.232;6.826;2022-07-06T08:29:49;17.50;99.90
37050;DHT22;22958;51.232;6.826;2022-07-06T08:32:14;18.00;99.90
37050;DHT22;22958;51.232;6.826;2022-07-06T08:34:40;17.40;99.90
37050;DHT22;22958;51.232;6.826;2022-07-06T08:37:06;17.50;99.90
37050;DHT22;22958;51.232;6.826;2022-07-06T08:39:31;17.80;99.90
37050;DHT22;22958;51.232;6.826;2022-07-06T08:41:58;18.20;99.90
37050;DHT22;22958;51.232;6.826;2022-07-06T08:44:25;18.70;99.90
37050;DHT22;22958;51.232;6.826;2022-07-06T08:46:52;18.60;99.90
37050;DHT22;22958;51.232;6.826;2022-07-06T08:49:19;19.10;99.90
37050;DHT22;22958;51.232;6.826;2022-07-06T08:51:45;19.30;99.90
37050;DHT22;22958;51.232;6.826;2022-07-06T08:54:11;19.00;99.90
37050;DHT22;22958;51.232;6.826;2022-07-06T08:56:38;18.80;99.90
37050;DHT22;22958;51.232;6.826;2022-07-06T08:59:04;19.10;99.90
37050;DHT22;22958;51.232;6.826;2022-07-06T09:01:29;18.80;99.90
37050;DHT22;22958;51.232;6.826;2022-07-06T09:03:56;18.40;99.90
37050;DHT22;22958;51.232;6.826;2022-07-06T09:06:26;18.20;99.90
37050;DHT22;22958;51.232;6.826;2022-07-06T09:08:54;18.70;99.90
37050;DHT22;22958;51.232;6.826;2022-07-06T09:11:23;18.80;99.90
37050;DHT22;22958;51.232;6.826;2022-07-06T09:13:52;18.90;99.90
37050;DHT22;22958;51.232;6.826;2022-07-06T09:16:25;18.10;99.90
37050;DHT22;22958;51.232;6.826;2022-07-06T09:18:51;18.20;99.90
37050;DHT22;22958;51.232;6.826;2022-07-06T09:21:29;18.30;99.90
37050;DHT22;22958;51.232;6.826;2022-07-06T09:24:00;18.20;99.90
37050;DHT22;22958;51.232;6.826;2022-07-06T09:26:27;18.20;99.90
37050;DHT22;22958;51.232;6.826;2022-07-06T09:28:55;18.50;99.90
37050;DHT22;22958;51.232;6.826;2022-07-06T09:31:21;19.10;99.90
37050;DHT22;22958;51.232;6.826;2022-07-06T09:36:49;19.20;95.40
37050;DHT22;22958;51.232;6.826;2022-07-06T09:39:28;19.70;94.50
37050;DHT22;22958;51.232;6.826;2022-07-06T09:41:59;19.10;92.90
37050;DHT22;22958;51.232;6.826;2022-07-06T09:44:28;18.70;95.10
37050;DHT22;22958;51.232;6.826;2022-07-06T09:46:58;18.50;95.80
37050;DHT22;22958;51.232;6.826;2022-07-06T09:49:25;18.30;96.90
37050;DHT22;22958;51.232;6.826;2022-07-06T09:51:56;18.60;97.60
37050;DHT22;22958;51.232;6.826;2022-07-06T09:54:22;19.10;97.30
37050;DHT22;22958;51.232;6.826;2022-07-06T09:56:49;19.30;95.30
37050;DHT22;22958;51.232;6.826;2022-07-06T09:59:23;19.30;93.30
37050;DHT22;22958;51.232;6.826;2022-07-06T10:01:54;19.10;95.50
37050;DHT22;22958;51.232;6.826;2022-07-06T10:04:20;19.40;96.20
37050;DHT22;22958;51.232;6.826;2022-07-06T10:06:47;19.40;96.20
37050;DHT22;22958;51.232;6.826;2022-07-06T10:09:13;20.00;94.60
37050;DHT22;22958;51.232;6.826;2022-07-06T10:11:44;19.70;92.80
37050;DHT22;22958;51.232;6.826;2022-07-06T10:14:12;19.60;92.20
37050;DHT22;22958;51.232;6.826;2022-07-06T10:16:40;19.30;93.30
37050;DHT22;22958;51.232;6.826;2022-07-06T10:19:07;19.00;94.90
37050;DHT22;22958;51.232;6.826;2022-07-06T10:21:37;19.30;95.10
37050;DHT22;22958;51.232;6.826;2022-07-06T10:24:05;19.10;94.40
37050;DHT22;22958;51.232;6.826;2022-07-06T10:26:32;19.00;94.40
37050;DHT22;22958;51.232;6.826;2022-07-06T10:28:59;19.30;94.00
37050;DHT22;22958;51.232;6.826;2022-07-06T10:31:26;19.90;93.60
37050;DHT22;22958;51.232;6.826;2022-07-06T10:33:54;20.30;91.80
37050;DHT22;22958;51.232;6.826;2022-07-06T10:36:20;21.00;89.80
37050;DHT22;22958;51.232;6.826;2022-07-06T10:38:50;20.90;85.60
37050;DHT22;22958;51.232;6.826;2022-07-06T10:41:16;21.10;85.00
37050;DHT22;22958;51.232;6.826;2022-07-06T10:43:44;20.30;87.30
37050;DHT22;22958;51.232;6.826;2022-07-06T10:46:14;20.20;87.70
37050;DHT22;22958;51.232;6.826;2022-07-06T10:48:42;19.80;88.10
37050;DHT22;22958;51.232;6.826;2022-07-06T10:51:08;20.10;88.20
37050;DHT22;22958;51.232;6.826;2022-07-06T10:53:40;19.90;85.80
37050;DHT22;22958;51.232;6.826;2022-07-06T10:56:11;19.70;87.00
37050;DHT22;22958;51.232;6.826;2022-07-06T10:58:41;20.50;84.70
37050;DHT22;22958;51.232;6.826;2022-07-06T11:01:11;20.60;82.70
37050;DHT22;22958;51.232;6.826;2022-07-06T11:06:23;21.30;80.10
37050;DHT22;22958;51.232;6.826;2022-07-06T11:14:00;20.00;84.40
37050;DHT22;22958;51.232;6.826;2022-07-06T11:16:40;20.10;84.70
37050;DHT22;22958;51.232;6.826;2022-07-06T11:19:13;20.40;84.50
37050;DHT22;22958;51.232;6.826;2022-07-06T11:21:57;21.10;81.30
37050;DHT22;22958;51.232;6.826;2022-07-06T11:24:31;21.90;79.50
37050;DHT22;22958;51.232;6.826;2022-07-06T11:26:57;22.90;74.40
37050;DHT22;22958;51.232;6.826;2022-07-06T11:29:25;21.30;75.70
37050;DHT22;22958;51.232;6.826;2022-07-06T11:31:56;21.20;77.30
37050;DHT22;22958;51.232;6.826;2022-07-06T11:34:31;22.10;75.50
37050;DHT22;22958;51.232;6.826;2022-07-06T11:37:01;21.80;73.10
37050;DHT22;22958;51.232;6.826;2022-07-06T11:39:32;21.70;72.80
37050;DHT22;22958;51.232;6.826;2022-07-06T11:41:59;22.10;72.90
37050;DHT22;22958;51.232;6.826;2022-07-06T11:44:26;23.00;69.90
37050;DHT22;22958;51.232;6.826;2022-07-06T11:46:52;23.30;68.30
37050;DHT22;22958;51.232;6.826;2022-07-06T11:49:18;23.40;70.10
37050;DHT22;22958;51.232;6.826;2022-07-06T11:51:45;23.10;68.40
37050;DHT22;22958;51.232;6.826;2022-07-06T11:54:19;22.90;68.80
37050;DHT22;22958;51.232;6.826;2022-07-06T11:56:58;23.40;66.70
37050;DHT22;22958;51.232;6.826;2022-07-06T11:59:31;22.50;67.30
37050;DHT22;22958;51.232;6.826;2022-07-06T12:02:05;22.30;69.10
37050;DHT22;22958;51.232;6.826;2022-07-06T12:04:32;22.00;69.60
37050;DHT22;22958;51.232;6.826;2022-07-06T12:07:03;21.50;71.60
37050;DHT22;22958;51.232;6.826;2022-07-06T12:09:36;22.40;70.40
37050;DHT22;22958;51.232;6.826;2022-07-06T12:12:03;22.20;69.70
37050;DHT22;22958;51.232;6.826;2022-07-06T12:14:30;22.10;70.50
37050;DHT22;22958;51.232;6.826;2022-07-06T12:16:56;22.30;69.90
37050;DHT22;22958;51.232;6.826;2022-07-06T12:19:27;22.20;70.00
37050;DHT22;22958;51.232;6.826;2022-07-06T12:21:52;22.10;69.40
37050;DHT22;22958;51.232;6.826;2022-07-06T12:24:24;21.80;69.10
37050;DHT22;22958;51.232;6.826;2022-07-06T12:26:51;21.30;70.00
37050;DHT22;22958;51.232;6.826;2022-07-06T12:29:17;21.20;71.90
37050;DHT22;22958;51.232;6.826;2022-07-06T12:31:44;21.30;72.50
37050;DHT22;22958;51.232;6.826;2022-07-06T12:34:21;21.40;73.40
37050;DHT22;22958;51.232;6.826;2022-07-06T12:36:49;21.60;74.60
37050;DHT22;22958;51.232;6.826;2022-07-06T12:39:17;21.50;73.70
37050;DHT22;22958;51.232;6.826;2022-07-06T12:41:48;21.20;75.50
37050;DHT22;22958;51.232;6.826;2022-07-06T12:44:17;21.10;76.10
37050;DHT22;22958;51.232;6.826;2022-07-06T12:46:43;21.30;76.10
37050;DHT22;22958;51.232;6.826;2022-07-06T12:49:21;21.80;74.30
37050;DHT22;22958;51.232;6.826;2022-07-06T12:51:51;22.30;71.30
37050;DHT22;22958;51.232;6.826;2022-07-06T12:54:17;22.10;70.70
37050;DHT22;22958;51.232;6.826;2022-07-06T12:57:04;22.00;71.80
37050;DHT22;22958;51.232;6.826;2022-07-06T12:59:31;21.30;72.80
37050;DHT22;22958;51.232;6.826;2022-07-06T13:01:57;22.00;73.20
37050;DHT22;22958;51.232;6.826;2022-07-06T13:04:27;22.70;71.50
37050;DHT22;22958;51.232;6.826;2022-07-06T13:06:53;23.00;70.40
37050;DHT22;22958;51.232;6.826;2022-07-06T13:09:20;23.30;69.70
37050;DHT22;22958;51.232;6.826;2022-07-06T13:11:46;23.20;68.80
37050;DHT22;22958;51.232;6.826;2022-07-06T13:14:13;22.90;70.10
37050;DHT22;22958;51.232;6.826;2022-07-06T13:16:39;22.10;72.00
37050;DHT22;22958;51.232;6.826;2022-07-06T13:19:05;21.50;74.20
37050;DHT22;22958;51.232;6.826;2022-07-06T13:21:31;21.20;73.20
37050;DHT22;22958;51.232;6.826;2022-07-06T13:23:56;22.20;71.40
37050;DHT22;22958;51.232;6.826;2022-07-06T13:26:22;22.90;67.80
37050;DHT22;22958;51.232;6.826;2022-07-06T13:28:47;22.50;68.60
37050;DHT22;22958;51.232;6.826;2022-07-06T13:31:13;23.20;69.00
37050;DHT22;22958;51.232;6.826;2022-07-06T13:33:39;24.30;67.60
37050;DHT22;22958;51.232;6.826;2022-07-06T13:36:05;26.10;61.40
37050;DHT22;22958;51.232;6.826;2022-07-06T13:38:30;25.80;58.40
37050;DHT22;22958;51.232;6.826;2022-07-06T13:40:56;24.50;59.30
37050;DHT22;22958;51.232;6.826;2022-07-06T13:43:22;24.70;59.80
37050;DHT22;22958;51.232;6.826;2022-07-06T13:45:47;24.80;58.60
37050;DHT22;22958;51.232;6.826;2022-07-06T13:48:13;23.90;61.20
37050;DHT22;22958;51.232;6.826;2022-07-06T13:50:39;24.30;59.80
37050;DHT22;22958;51.232;6.826;2022-07-06T13:53:04;23.60;61.80
37050;DHT22;22958;51.232;6.826;2022-07-06T13:55:31;22.20;65.10
37050;DHT22;22958;51.232;6.826;2022-07-06T13:57:56;23.00;66.60
37050;DHT22;22958;51.232;6.826;2022-07-06T14:00:22;25.10;60.60
37050;DHT22;22958;51.232;6.826;2022-07-06T14:02:48;25.20;60.20
37050;DHT22;22958;51.232;6.826;2022-07-06T14:05:13;24.30;58.70
37050;DHT22;22958;51.232;6.826;2022-07-06T14:07:39;23.50;59.30
37050;DHT22;22958;51.232;6.826;2022-07-06T14:10:05;23.60;60.50
37050;DHT22;22958;51.232;6.826;2022-07-06T14:12:30;24.40;59.50
37050;DHT22;22958;51.232;6.826;2022-07-06T14:14:56;23.40;59.70
37050;DHT22;22958;51.232;6.826;2022-07-06T14:17:22;22.80;61.80
37050;DHT22;22958;51.232;6.826;2022-07-06T14:19:49;23.00;64.00
37050;DHT22;22958;51.232;6.826;2022-07-06T14:22:14;23.90;61.30
37050;DHT22;22958;51.232;6.826;2022-07-06T14:24:40;24.80;60.00
37050;DHT22;22958;51.232;6.826;2022-07-06T14:27:06;23.50;60.00
37050;DHT22;22958;51.232;6.826;2022-07-06T14:29:31;24.10;59.80
37050;DHT22;22958;51.232;6.826;2022-07-06T14:31:57;24.30;59.30
37050;DHT22;22958;51.232;6.826;2022-07-06T14:34:22;24.30;59.90
37050;DHT22;22958;51.232;6.826;2022-07-06T14:36:48;24.80;58.40
37050;DHT22;22958;51.232;6.826;2022-07-06T14:39:13;24.30;59.00
37050;DHT22;22958;51.232;6.826;2022-07-06T14:41:39;24.00;60.50
37050;DHT22;22958;51.232;6.826;2022-07-06T14:44:05;24.10;60.50
37050;DHT22;22958;51.232;6.826;2022-07-06T14:46:31;23.10;61.00
37050;DHT22;22958;51.232;6.826;2022-07-06T14:48:57;23.10;63.00
37050;DHT22;22958;51.232;6.826;2022-07-06T14:51:22;23.70;61.00
37050;DHT22;22958;51.232;6.826;2022-07-06T14:53:48;24.50;59.30
37050;DHT22;22958;51.232;6.826;2022-07-06T14:56:14;24.90;58.30
37050;DHT22;22958;51.232;6.826;2022-07-06T14:58:39;24.30;59.30
37050;DHT22;22958;51.232;6.826;2022-07-06T15:01:05;24.10;59.80
37050;DHT22;22958;51.232;6.826;2022-07-06T15:03:31;23.80;60.20
37050;DHT22;22958;51.232;6.826;2022-07-06T15:05:57;23.00;61.20
37050;DHT22;22958;51.232;6.826;2022-07-06T15:08:23;23.00;61.10
37050;DHT22;22958;51.232;6.826;2022-07-06T15:10:49;23.20;61.10
37050;DHT22;22958;51.232;6.826;2022-07-06T15:13:14;24.20;60.90
37050;DHT22;22958;51.232;6.826;2022-07-06T15:15:40;24.50;58.60
37050;DHT22;22958;51.232;6.826;2022-07-06T15:18:06;23.90;59.60
37050;DHT22;22958;51.232;6.826;2022-07-06T15:20:31;23.70;59.90
37050;DHT22;22958;51.232;6.826;2022-07-06T15:22:58;24.10;59.60
37050;DHT22;22958;51.232;6.826;2022-07-06T15:25:23;24.40;59.60
37050;DHT22;22958;51.232;6.826;2022-07-06T15:27:53;23.00;61.00
37050;DHT22;22958;51.232;6.826;2022-07-06T15:30:19;23.00;61.80
37050;DHT22;22958;51.232;6.826;2022-07-06T15:32:45;22.20;64.10
37050;DHT22;22958;51.232;6.826;2022-07-06T15:35:11;22.10;64.10
37050;DHT22;22958;51.232;6.826;2022-07-06T15:37:36;22.00;65.20